createdAt,value
2019-02-16T00:01:46.564Z,6.67
2019-02-16T00:04:14.397Z,6.92
2019-02-16T00:06:42.226Z,6.85
2019-02-16T00:09:10.095Z,6.67
2019-02-16T00:11:37.939Z,9.23
2019-02-16T00:14:05.986Z,5.90
2019-02-16T00:16:33.810Z,6.80
2019-02-16T00:19:01.699Z,7.20
2019-02-16T00:21:29.511Z,6.05
2019-02-16T00:23:57.313Z,6.20
2019-02-16T00:26:25.151Z,7.17
2019-02-16T00:28:52.953Z,6.33
2019-02-16T00:31:20.825Z,6.00
2019-02-16T00:33:48.653Z,6.30
2019-02-16T00:36:16.505Z,6.00
2019-02-16T00:38:44.326Z,6.35
2019-02-16T00:41:12.121Z,7.75
2019-02-16T00:43:39.970Z,6.53
2019-02-16T00:46:08.046Z,6.28
2019-02-16T00:48:35.862Z,5.70
2019-02-16T00:51:12.910Z,6.50
2019-02-16T00:53:33.271Z,6.60
2019-02-16T00:56:01.088Z,6.50
2019-02-16T00:58:28.933Z,7.33
2019-02-16T01:00:56.846Z,7.37
2019-02-16T01:03:24.725Z,8.28
2019-02-16T01:05:52.518Z,6.53
2019-02-16T01:08:20.369Z,5.78
2019-02-16T01:10:48.213Z,6.00
2019-02-16T01:13:16.119Z,6.10
2019-02-16T01:15:43.927Z,6.83
2019-02-16T01:18:12.048Z,7.00
2019-02-16T01:20:39.865Z,6.45
2019-02-16T01:23:07.728Z,6.50
2019-02-16T01:25:35.553Z,7.45
2019-02-16T01:28:03.406Z,6.20
2019-02-16T01:30:31.244Z,6.47
2019-02-16T01:32:59.078Z,6.45
2019-02-16T01:35:26.877Z,6.67
2019-02-16T01:37:54.730Z,7.17
2019-02-16T01:40:22.553Z,5.50
2019-02-16T01:42:50.352Z,5.87
2019-02-16T01:45:18.223Z,5.70
2019-02-16T01:47:46.102Z,6.37
2019-02-16T01:50:14.377Z,4.92
2019-02-16T01:52:42.342Z,6.03
2019-02-16T01:55:10.594Z,6.28
2019-02-16T01:57:38.394Z,6.75
2019-02-16T02:00:06.947Z,5.55
2019-02-16T02:02:34.757Z,7.25
2019-02-16T02:05:02.847Z,5.65
2019-02-16T02:07:30.700Z,6.30
2019-02-16T02:09:58.522Z,6.83
2019-02-16T02:12:26.317Z,7.50
2019-02-16T02:14:54.190Z,7.87
2019-02-16T02:17:22.007Z,6.60
2019-02-16T02:19:49.826Z,6.50
2019-02-16T02:22:17.627Z,6.40
2019-02-16T02:24:45.467Z,6.10
2019-02-16T02:27:13.302Z,7.25
2019-02-16T02:29:41.114Z,6.60
2019-02-16T02:32:08.926Z,7.08
2019-02-16T02:34:36.745Z,7.15
2019-02-16T02:37:04.683Z,7.03
2019-02-16T02:39:32.531Z,6.97
2019-02-16T02:42:00.362Z,6.83
2019-02-16T02:44:28.182Z,7.03
2019-02-16T02:46:56.016Z,8.15
2019-02-16T02:49:23.816Z,5.83
2019-02-16T02:51:52.626Z,6.92
2019-02-16T02:54:20.545Z,6.45
2019-02-16T02:56:48.382Z,7.62
2019-02-16T02:59:16.210Z,6.62
2019-02-16T03:01:44.159Z,6.45
2019-02-16T03:04:11.971Z,5.95
2019-02-16T03:06:39.813Z,6.97
2019-02-16T03:09:07.633Z,7.45
2019-02-16T03:11:35.456Z,5.92
2019-02-16T03:14:03.338Z,6.25
2019-02-16T03:16:31.173Z,6.50
2019-02-16T03:18:59.058Z,6.28
2019-02-16T03:21:26.894Z,5.70
2019-02-16T03:23:54.720Z,6.25
2019-02-16T03:26:44.776Z,6.28
2019-02-16T03:29:31.186Z,6.80
2019-02-16T03:32:21.628Z,6.22
2019-02-16T03:34:54.821Z,5.50
2019-02-16T03:37:50.834Z,5.65
2019-02-16T03:40:18.657Z,5.85
2019-02-16T03:42:46.500Z,5.58
2019-02-16T03:45:14.306Z,6.08
2019-02-16T03:47:42.172Z,5.95
2019-02-16T03:50:09.974Z,5.97
2019-02-16T03:52:37.814Z,5.30
2019-02-16T03:55:05.695Z,5.40
2019-02-16T03:57:33.518Z,5.47
2019-02-16T04:00:01.325Z,5.85
2019-02-16T04:02:29.203Z,6.37
2019-02-16T04:04:57.070Z,5.25
2019-02-16T04:07:25.249Z,5.45
2019-02-16T04:09:53.061Z,5.78
2019-02-16T04:12:20.866Z,4.97
2019-02-16T04:14:48.728Z,5.85
2019-02-16T04:17:16.602Z,5.50
2019-02-16T04:19:44.431Z,6.28
2019-02-16T04:22:12.247Z,5.33
2019-02-16T04:24:40.095Z,5.20
2019-02-16T04:27:07.929Z,6.15
2019-02-16T04:29:35.768Z,5.97
2019-02-16T04:32:03.575Z,6.25
2019-02-16T04:34:31.441Z,6.08
2019-02-16T04:36:59.295Z,5.50
2019-02-16T04:39:27.555Z,6.05
2019-02-16T04:41:55.350Z,5.78
2019-02-16T04:44:23.207Z,6.80
2019-02-16T04:46:51.004Z,7.60
2019-02-16T04:49:18.853Z,6.97
2019-02-16T04:51:46.673Z,5.72
2019-02-16T04:54:14.476Z,7.03
2019-02-16T04:56:42.303Z,6.17
2019-02-16T04:59:10.122Z,5.90
2019-02-16T05:01:37.957Z,6.72
2019-02-16T05:04:05.789Z,6.78
2019-02-16T05:06:33.626Z,7.12
2019-02-16T05:09:01.455Z,6.17
2019-02-16T05:11:29.632Z,6.42
2019-02-16T05:13:57.510Z,6.72
2019-02-16T05:16:25.385Z,5.60
2019-02-16T05:18:53.217Z,5.72
2019-02-16T05:21:21.056Z,6.80
2019-02-16T05:23:48.882Z,6.20
2019-02-16T05:26:16.752Z,7.08
2019-02-16T05:28:44.629Z,6.33
2019-02-16T05:31:12.447Z,6.08
2019-02-16T05:33:40.242Z,6.72
2019-02-16T05:36:08.115Z,5.22
2019-02-16T05:38:35.902Z,6.03
2019-02-16T05:41:03.720Z,6.60
2019-02-16T05:43:31.696Z,6.25
2019-02-16T05:45:59.542Z,5.10
2019-02-16T05:48:27.353Z,6.30
2019-02-16T05:50:55.162Z,5.22
2019-02-16T05:53:23.007Z,5.12
2019-02-16T05:55:50.827Z,4.80
2019-02-16T05:58:18.663Z,4.67
2019-02-16T06:00:46.458Z,4.83
2019-02-16T06:03:14.369Z,4.58
2019-02-16T06:05:42.186Z,4.22
2019-02-16T06:08:10.013Z,4.90
2019-02-16T06:10:37.836Z,5.03
2019-02-16T06:13:05.956Z,4.35
2019-02-16T06:15:34.169Z,3.90
2019-02-16T06:18:02.002Z,4.35
2019-02-16T06:20:29.824Z,4.62
2019-02-16T06:23:03.950Z,4.17
2019-02-16T06:25:27.170Z,4.60
2019-02-16T06:27:55.001Z,3.90
2019-02-16T06:30:22.812Z,5.10
2019-02-16T06:32:50.670Z,4.15
2019-02-16T06:35:37.590Z,4.30
2019-02-16T06:38:05.445Z,4.70
2019-02-16T06:40:33.271Z,5.28
2019-02-16T06:43:01.128Z,4.62
2019-02-16T06:45:28.944Z,4.95
2019-02-16T06:47:56.821Z,4.33
2019-02-16T06:50:24.605Z,4.95
2019-02-16T06:52:52.513Z,5.20
2019-02-16T06:55:20.331Z,5.50
2019-02-16T06:57:51.496Z,5.37
2019-02-16T07:00:22.014Z,5.00
2019-02-16T07:02:49.833Z,4.92
2019-02-16T07:05:17.665Z,4.62
2019-02-16T07:07:45.481Z,4.87
2019-02-16T07:10:13.301Z,4.25
2019-02-16T07:12:41.165Z,5.10
2019-02-16T07:15:09.144Z,4.80
2019-02-16T07:17:58.911Z,4.17
2019-02-16T07:20:26.754Z,4.17
2019-02-16T07:22:54.603Z,4.03
2019-02-16T07:25:23.333Z,5.10
2019-02-16T07:27:51.155Z,4.20
2019-02-16T07:30:19.013Z,4.08
2019-02-16T07:32:46.869Z,4.20
2019-02-16T07:35:14.719Z,4.30
2019-02-16T07:37:42.612Z,5.55
2019-02-16T07:40:11.266Z,4.40
2019-02-16T07:42:52.923Z,3.95
2019-02-16T07:45:47.541Z,4.30
2019-02-16T07:48:46.411Z,4.53
2019-02-16T07:51:28.137Z,3.92
2019-02-16T07:54:20.851Z,3.87
2019-02-16T07:56:53.765Z,4.83
2019-02-16T07:59:27.362Z,4.67
2019-02-16T08:02:23.383Z,4.28
2019-02-16T08:05:16.299Z,5.00
2019-02-16T08:07:50.354Z,4.37
2019-02-16T08:10:46.353Z,3.83
2019-02-16T08:13:36.078Z,4.60
2019-02-16T08:16:19.117Z,4.20
2019-02-16T08:19:11.810Z,3.95
2019-02-16T08:22:14.096Z,4.70
2019-02-16T08:24:49.974Z,4.95
2019-02-16T08:27:41.934Z,4.35
2019-02-16T08:30:31.189Z,4.15
2019-02-16T08:33:18.089Z,4.03
2019-02-16T08:36:20.165Z,3.70
2019-02-16T08:39:25.066Z,4.53
2019-02-16T08:42:14.952Z,4.50
2019-02-16T08:44:50.447Z,4.00
2019-02-16T08:47:29.451Z,4.55
2019-02-16T08:50:22.142Z,4.08
2019-02-16T08:53:11.861Z,4.40
2019-02-16T08:55:52.151Z,4.40
2019-02-16T08:58:41.798Z,4.42
2019-02-16T09:01:27.657Z,4.75
2019-02-16T09:04:14.582Z,4.37
2019-02-16T09:07:07.496Z,4.95
2019-02-16T09:10:01.076Z,5.17
2019-02-16T09:12:43.670Z,5.00
2019-02-16T09:15:30.586Z,5.90
2019-02-16T09:18:12.636Z,4.85
2019-02-16T09:20:59.516Z,5.03
2019-02-16T09:23:59.096Z,4.63
2019-02-16T09:26:34.855Z,5.50
2019-02-16T09:29:09.299Z,4.65
2019-02-16T09:32:01.520Z,5.35
2019-02-16T09:34:51.186Z,5.00
2019-02-16T09:37:29.206Z,5.10
2019-02-16T09:40:16.091Z,5.45
2019-02-16T09:42:52.379Z,5.20
2019-02-16T09:45:45.968Z,4.93
2019-02-16T09:48:36.119Z,5.40
2019-02-16T09:51:19.087Z,6.30
2019-02-16T09:54:08.680Z,5.23
2019-02-16T09:56:58.834Z,6.77
2019-02-16T09:59:45.731Z,6.10
2019-02-16T10:02:32.677Z,4.77
2019-02-16T10:05:09.546Z,6.30
2019-02-16T10:07:56.433Z,5.57
2019-02-16T10:10:32.731Z,5.13
2019-02-16T10:13:09.294Z,5.00
2019-02-16T10:16:05.038Z,5.97
2019-02-16T10:18:54.915Z,6.00
2019-02-16T10:21:53.868Z,5.40
2019-02-16T10:24:40.732Z,6.37
2019-02-16T10:27:14.886Z,5.83
2019-02-16T10:30:14.020Z,5.20
2019-02-16T10:32:59.541Z,5.70
2019-02-16T10:35:52.494Z,4.87
2019-02-16T10:38:29.454Z,4.77
2019-02-16T10:41:08.192Z,5.47
2019-02-16T10:44:07.260Z,5.00
2019-02-16T10:46:56.985Z,5.30
2019-02-16T10:49:43.869Z,6.50
2019-02-16T10:52:33.807Z,5.67
2019-02-16T10:55:26.704Z,6.60
2019-02-16T10:58:18.161Z,6.73
2019-02-16T11:01:08.062Z,6.20
2019-02-16T11:03:44.806Z,7.60
2019-02-16T11:06:31.717Z,7.60
2019-02-16T11:09:27.550Z,7.53
2019-02-16T11:12:04.176Z,8.10
2019-02-16T11:14:55.014Z,8.70
2019-02-16T11:17:40.371Z,8.43
2019-02-16T11:20:36.273Z,8.83
2019-02-16T11:23:38.222Z,9.83
2019-02-16T11:26:20.371Z,8.90
2019-02-16T11:29:11.217Z,8.63
2019-02-16T11:32:07.399Z,9.57
2019-02-16T11:35:06.613Z,10.40
2019-02-16T11:37:56.518Z,9.20
2019-02-16T11:40:43.690Z,8.27
2019-02-16T11:43:36.708Z,9.80
2019-02-16T11:46:35.832Z,9.70
2019-02-16T11:49:19.736Z,9.43
2019-02-16T11:52:06.611Z,9.23
2019-02-16T11:55:02.983Z,9.00
2019-02-16T11:57:58.742Z,10.15
2019-02-16T12:00:43.377Z,9.47
2019-02-16T12:03:25.555Z,9.13
2019-02-16T12:06:03.020Z,9.60
2019-02-16T12:08:47.336Z,9.18
2019-02-16T12:11:43.227Z,8.50
2019-02-16T12:14:29.157Z,9.25
2019-02-16T12:17:34.353Z,8.78
2019-02-16T12:20:21.337Z,9.33
2019-02-16T12:23:01.994Z,9.93
2019-02-16T12:25:47.758Z,8.38
2019-02-16T12:28:31.738Z,9.80
2019-02-16T12:31:17.560Z,10.00
2019-02-16T12:34:07.428Z,7.97
2019-02-16T12:36:41.489Z,8.63
2019-02-16T12:39:34.151Z,8.15
2019-02-16T12:42:26.837Z,9.00
2019-02-16T12:45:03.187Z,9.15
2019-02-16T12:47:47.104Z,9.05
2019-02-16T12:50:22.766Z,9.40
2019-02-16T12:53:21.791Z,8.00
2019-02-16T12:55:59.719Z,8.13
2019-02-16T12:58:59.013Z,8.93
2019-02-16T13:01:42.633Z,8.93
2019-02-16T13:04:20.153Z,9.20
2019-02-16T13:07:22.232Z,8.75
2019-02-16T13:10:01.504Z,8.05
2019-02-16T13:12:41.777Z,8.40
2019-02-16T13:15:17.184Z,8.23
2019-02-16T13:18:10.387Z,8.65
2019-02-16T13:20:49.066Z,8.00
2019-02-16T13:23:42.265Z,9.30
2019-02-16T13:26:32.450Z,8.93
2019-02-16T13:29:22.515Z,8.30
2019-02-16T13:32:18.748Z,9.10
2019-02-16T13:34:52.682Z,9.78
2019-02-16T13:37:45.937Z,9.08
2019-02-16T13:40:44.993Z,9.20
2019-02-16T13:43:19.324Z,8.93
2019-02-16T13:46:02.295Z,8.50
2019-02-16T13:48:43.874Z,8.87
2019-02-16T13:51:22.746Z,8.78
2019-02-16T13:54:08.541Z,8.73
2019-02-16T13:57:01.922Z,9.63
2019-02-16T13:59:36.887Z,8.40
2019-02-16T14:02:20.482Z,8.75
2019-02-16T14:05:10.169Z,9.20
2019-02-16T14:07:45.644Z,8.95
2019-02-16T14:10:27.878Z,9.13
2019-02-16T14:13:02.633Z,9.45
2019-02-16T14:15:41.499Z,9.55
2019-02-16T14:18:09.350Z,8.90
2019-02-16T14:20:38.656Z,9.75
2019-02-16T14:23:06.697Z,9.55
2019-02-16T14:25:43.667Z,8.65
2019-02-16T14:28:10.049Z,9.30
2019-02-16T14:30:37.923Z,9.25
2019-02-16T14:33:05.803Z,8.80
2019-02-16T14:35:33.693Z,9.00
2019-02-16T14:38:09.254Z,9.20
2019-02-16T14:40:37.121Z,9.53
2019-02-16T14:43:04.943Z,8.70
2019-02-16T14:45:35.737Z,8.63
2019-02-16T14:48:03.573Z,9.13
2019-02-16T14:50:31.474Z,9.08
2019-02-16T14:52:59.346Z,9.00
2019-02-16T14:55:27.231Z,9.25
2019-02-16T14:57:55.122Z,8.63
2019-02-16T15:00:22.987Z,8.75
2019-02-16T15:02:50.863Z,9.75
2019-02-16T15:05:18.799Z,8.50
2019-02-16T15:07:46.658Z,8.35
2019-02-16T15:10:14.540Z,10.50
2019-02-16T15:12:42.505Z,9.83
2019-02-16T15:15:10.476Z,9.03
2019-02-16T15:17:38.400Z,9.30
2019-02-16T15:20:06.938Z,8.18
2019-02-16T15:22:34.894Z,9.90
2019-02-16T15:25:02.767Z,8.15
2019-02-16T15:27:30.784Z,8.20
2019-02-16T15:29:58.727Z,8.50
2019-02-16T15:32:26.639Z,10.30
2019-02-16T15:34:54.606Z,10.00
2019-02-16T15:37:22.525Z,8.30
2019-02-16T15:39:50.392Z,8.25
2019-02-16T15:42:18.345Z,7.90
2019-02-16T15:44:46.379Z,7.62
2019-02-16T15:47:14.322Z,7.10
2019-02-16T15:49:42.222Z,7.50
2019-02-16T15:52:10.086Z,7.83
2019-02-16T15:54:37.973Z,9.20
2019-02-16T15:57:05.837Z,8.88
2019-02-16T15:59:35.389Z,9.28
2019-02-16T16:02:03.453Z,8.33
2019-02-16T16:04:31.342Z,9.08
2019-02-16T16:06:59.209Z,8.18
2019-02-16T16:09:35.788Z,8.68
2019-02-16T16:12:14.771Z,8.38
2019-02-16T16:15:04.393Z,8.83
2019-02-16T16:17:51.332Z,7.42
2019-02-16T16:20:50.309Z,9.35
2019-02-16T16:23:40.255Z,9.60
2019-02-16T16:26:39.339Z,9.70
2019-02-16T16:29:26.248Z,9.25
2019-02-16T16:32:04.576Z,9.58
2019-02-16T16:34:42.624Z,9.05
2019-02-16T16:37:32.233Z,9.78
2019-02-16T16:40:25.431Z,11.00
2019-02-16T16:43:21.390Z,10.43
2019-02-16T16:46:01.827Z,10.25
2019-02-16T16:48:55.370Z,9.93
2019-02-16T16:51:42.315Z,8.75
2019-02-16T16:54:19.071Z,9.63
2019-02-16T16:57:04.850Z,9.43
2019-02-16T16:59:50.450Z,8.60
2019-02-16T17:02:36.438Z,10.10
2019-02-16T17:05:23.500Z,9.75
2019-02-16T17:08:00.635Z,9.53
2019-02-16T17:10:47.532Z,9.93
2019-02-16T17:13:34.178Z,13.10
2019-02-16T17:16:27.381Z,11.60
2019-02-16T17:19:00.170Z,12.47
2019-02-16T17:21:45.776Z,13.58
2019-02-16T17:24:31.210Z,12.60
2019-02-16T17:27:24.206Z,15.00
2019-02-16T17:30:14.186Z,14.70
2019-02-16T17:33:07.309Z,11.60
2019-02-16T17:35:43.706Z,12.10
2019-02-16T17:38:25.638Z,10.78
2019-02-16T17:41:12.660Z,11.18
2019-02-16T17:43:55.684Z,11.68
2019-02-16T17:46:51.361Z,9.90
2019-02-16T17:49:33.978Z,11.03
2019-02-16T17:52:22.182Z,10.58
2019-02-16T17:55:18.087Z,10.70
2019-02-16T17:58:04.117Z,12.15
2019-02-16T18:01:06.141Z,11.75
2019-02-16T18:03:51.418Z,12.20
2019-02-16T18:06:50.628Z,11.53
2019-02-16T18:09:33.558Z,12.58
2019-02-16T18:12:29.459Z,12.80
2019-02-16T18:15:09.352Z,13.25
2019-02-16T18:17:56.311Z,14.00
2019-02-16T18:20:49.492Z,15.23
2019-02-16T18:23:35.539Z,13.48
2019-02-16T18:26:31.498Z,17.25
2019-02-16T18:29:27.468Z,18.57
2019-02-16T18:32:17.522Z,16.40
2019-02-16T18:35:24.195Z,15.30
2019-02-16T18:38:17.686Z,14.85
2019-02-16T18:41:02.176Z,16.65
2019-02-16T18:43:59.824Z,17.02
2019-02-16T18:46:45.786Z,14.20
2019-02-16T18:49:31.333Z,14.93
2019-02-16T18:52:13.777Z,17.05
2019-02-16T18:55:12.765Z,17.55
2019-02-16T18:58:02.590Z,16.32
2019-02-16T19:00:35.582Z,17.82
2019-02-16T19:03:21.462Z,16.60
2019-02-16T19:06:02.331Z,17.40
2019-02-16T19:08:58.466Z,15.78
2019-02-16T19:12:00.521Z,16.48
2019-02-16T19:14:47.679Z,18.82
2019-02-16T19:17:37.848Z,15.32
2019-02-16T19:20:31.272Z,15.40
2019-02-16T19:23:24.775Z,16.10
2019-02-16T19:26:11.683Z,16.00
2019-02-16T19:29:07.945Z,16.07
2019-02-16T19:31:53.727Z,16.00
2019-02-16T19:34:37.314Z,16.30
2019-02-16T19:37:24.331Z,16.60
2019-02-16T19:40:17.450Z,15.85
2019-02-16T19:43:17.022Z,16.82
2019-02-16T19:46:03.949Z,17.42
2019-02-16T19:49:05.042Z,18.60
2019-02-16T19:51:54.668Z,20.20
2019-02-16T19:54:43.986Z,22.25
2019-02-16T19:57:32.966Z,19.55
2019-02-16T20:00:21.291Z,19.12
2019-02-16T20:03:07.075Z,17.65
2019-02-16T20:06:00.302Z,20.77
2019-02-16T20:08:33.744Z,19.82
2019-02-16T20:11:23.688Z,21.00
2019-02-16T20:14:01.752Z,22.65
2019-02-16T20:16:41.773Z,25.62
2019-02-16T20:19:27.773Z,25.02
2019-02-16T20:22:01.775Z,26.82
2019-02-16T20:24:48.098Z,23.15
2019-02-16T20:27:37.832Z,23.07
2019-02-16T20:30:23.839Z,26.62
2019-02-16T20:33:12.990Z,24.12
2019-02-16T20:35:55.420Z,25.15
2019-02-16T20:38:46.547Z,26.25
2019-02-16T20:41:51.961Z,26.75
2019-02-16T20:44:29.979Z,23.87
2019-02-16T20:47:14.513Z,24.85
2019-02-16T20:50:07.529Z,24.85
2019-02-16T20:52:53.002Z,23.92
2019-02-16T20:55:40.204Z,22.93
2019-02-16T20:58:39.766Z,22.30
2019-02-16T21:01:20.079Z,20.05
2019-02-16T21:04:12.801Z,18.77
2019-02-16T21:07:04.872Z,20.80
2019-02-16T21:09:50.574Z,19.82
2019-02-16T21:12:34.465Z,17.95
2019-02-16T21:15:20.235Z,18.07
2019-02-16T21:18:06.374Z,18.75
2019-02-16T21:20:53.654Z,17.80
2019-02-16T21:23:55.655Z,18.07
2019-02-16T21:26:45.612Z,17.60
2019-02-16T21:29:31.294Z,16.27
2019-02-16T21:32:05.238Z,16.55
2019-02-16T21:34:52.116Z,18.80
2019-02-16T21:37:30.989Z,17.30
2019-02-16T21:40:07.856Z,17.17
2019-02-16T21:42:57.465Z,16.65
2019-02-16T21:45:37.673Z,16.75
2019-02-16T21:48:27.684Z,19.02
2019-02-16T21:51:10.881Z,19.67
2019-02-16T21:54:08.634Z,18.17
2019-02-16T21:56:55.490Z,19.62
2019-02-16T21:59:36.141Z,19.73
2019-02-16T22:02:32.183Z,19.80
2019-02-16T22:05:09.769Z,20.57
2019-02-16T22:07:48.269Z,17.95
2019-02-16T22:10:21.690Z,19.05
2019-02-16T22:13:07.675Z,19.23
2019-02-16T22:15:35.535Z,18.02
2019-02-16T22:18:03.407Z,20.25
2019-02-16T22:20:31.333Z,17.35
2019-02-16T22:22:59.169Z,18.60
2019-02-16T22:25:27.098Z,16.93
2019-02-16T22:27:55.000Z,18.55
2019-02-16T22:30:22.877Z,16.15
2019-02-16T22:32:50.703Z,16.48
2019-02-16T22:35:18.592Z,17.62
2019-02-16T22:37:46.437Z,15.23
2019-02-16T22:40:14.308Z,16.48
2019-02-16T22:42:42.123Z,16.97
2019-02-16T22:45:10.033Z,18.48
2019-02-16T22:47:37.900Z,15.23
2019-02-16T22:50:06.838Z,15.08
2019-02-16T22:52:34.666Z,15.72
2019-02-16T22:55:02.517Z,15.60
2019-02-16T22:57:30.385Z,14.03
2019-02-16T22:59:58.263Z,14.38
2019-02-16T23:02:26.105Z,14.40
2019-02-16T23:04:53.962Z,13.22
2019-02-16T23:07:21.854Z,15.58
2019-02-16T23:09:50.135Z,15.65
2019-02-16T23:12:17.977Z,16.37
2019-02-16T23:14:45.801Z,17.27
2019-02-16T23:17:13.701Z,17.17
2019-02-16T23:19:41.561Z,15.95
2019-02-16T23:22:09.440Z,17.55
2019-02-16T23:24:37.278Z,16.32
2019-02-16T23:27:05.304Z,16.05
2019-02-16T23:29:33.116Z,17.87
2019-02-16T23:32:00.974Z,16.57
2019-02-16T23:34:28.820Z,16.12
2019-02-16T23:36:56.750Z,16.07
2019-02-16T23:39:24.570Z,21.35
2019-02-16T23:41:52.451Z,19.02
2019-02-16T23:44:20.373Z,17.67
2019-02-16T23:46:48.314Z,16.93
2019-02-16T23:49:16.144Z,16.67
2019-02-16T23:51:43.982Z,16.67
2019-02-16T23:54:11.864Z,15.28
2019-02-16T23:56:39.710Z,15.43
2019-02-16T23:59:07.566Z,15.78
